createdAt,value
2023-12-22T00:00:00.969Z,100359.59
2023-12-22T00:02:29.918Z,100356.84
2023-12-22T00:04:57.116Z,100352.53
2023-12-22T00:07:24.293Z,100341.28
2023-12-22T00:09:51.348Z,100358.69
2023-12-22T00:12:18.426Z,100350.69
2023-12-22T00:14:45.430Z,100348.88
2023-12-22T00:17:12.599Z,100346.44
2023-12-22T00:19:39.710Z,100357.78
2023-12-22T00:22:06.815Z,100367.28
2023-12-22T00:24:34.182Z,100380.84
2023-12-22T00:27:01.218Z,100388.16
2023-12-22T00:29:29.647Z,100394.22
2023-12-22T00:31:56.909Z,100395.56
2023-12-22T00:34:24.381Z,100398.03
2023-12-22T00:36:51.423Z,100396.38
2023-12-22T00:39:18.455Z,100401.53
2023-12-22T00:41:45.434Z,100405.31
2023-12-22T00:44:12.933Z,100388.91
2023-12-22T00:46:40.013Z,100390.53
2023-12-22T00:49:07.042Z,100378.34
2023-12-22T00:51:34.424Z,100381.91
2023-12-22T00:54:01.440Z,100398.56
2023-12-22T00:56:28.518Z,100399.78
2023-12-22T00:59:02.132Z,100418.66
2023-12-22T01:01:32.981Z,100395.94
2023-12-22T01:03:59.977Z,100413.56
2023-12-22T01:06:29.391Z,100428.22
2023-12-22T01:08:58.975Z,100428.16
2023-12-22T01:11:25.968Z,100429.16
2023-12-22T01:13:53.093Z,100409.25
2023-12-22T01:16:22.915Z,100412.75
2023-12-22T01:18:50.401Z,100429.47
2023-12-22T01:21:18.194Z,100425.94
2023-12-22T01:23:45.147Z,100426.88
2023-12-22T01:26:12.372Z,100440.84
2023-12-22T01:28:39.394Z,100421.69
2023-12-22T01:31:06.372Z,100413.00
2023-12-22T01:33:33.365Z,100426.94
2023-12-22T01:36:00.674Z,100413.81
2023-12-22T01:38:27.732Z,100400.66
2023-12-22T01:40:54.847Z,100399.81
2023-12-22T01:43:23.337Z,100410.38
2023-12-22T01:45:57.014Z,100418.16
2023-12-22T01:48:25.981Z,100431.84
2023-12-22T01:50:54.721Z,100442.44
2023-12-22T01:53:22.708Z,100435.56
2023-12-22T01:55:51.685Z,100454.41
2023-12-22T01:58:20.879Z,100452.13
2023-12-22T02:00:48.118Z,100450.09
2023-12-22T02:03:15.671Z,100450.53
2023-12-22T02:05:43.726Z,100451.97
2023-12-22T02:08:12.211Z,100455.41
2023-12-22T02:10:39.378Z,100456.13
2023-12-22T02:13:06.815Z,100457.97
2023-12-22T02:15:34.721Z,100465.91
2023-12-22T02:18:26.267Z,100466.88
2023-12-22T02:20:54.620Z,100454.13
2023-12-22T02:23:21.555Z,100441.06
2023-12-22T02:25:54.427Z,100471.63
2023-12-22T02:28:22.802Z,100478.84
2023-12-22T02:31:11.056Z,100478.91
2023-12-22T02:33:40.716Z,100468.44
2023-12-22T02:36:09.788Z,100473.63
2023-12-22T02:38:38.736Z,100477.13
2023-12-22T02:41:06.981Z,100448.34
2023-12-22T02:43:34.279Z,100442.94
2023-12-22T02:46:01.614Z,100428.28
2023-12-22T02:48:28.655Z,100439.47
2023-12-22T02:50:55.754Z,100432.59
2023-12-22T02:53:22.721Z,100436.97
2023-12-22T02:55:49.740Z,100431.00
2023-12-22T02:58:17.023Z,100455.44
2023-12-22T03:00:44.253Z,100459.78
2023-12-22T03:03:11.265Z,100440.69
2023-12-22T03:05:38.394Z,100458.78
2023-12-22T03:08:06.011Z,100481.63
2023-12-22T03:10:33.045Z,100462.47
2023-12-22T03:13:00.154Z,100464.28
2023-12-22T03:15:27.746Z,100466.16
2023-12-22T03:17:54.968Z,100449.56
2023-12-22T03:20:22.058Z,100440.00
2023-12-22T03:22:49.049Z,100442.66
2023-12-22T03:25:16.263Z,100448.72
2023-12-22T03:27:43.320Z,100443.41
2023-12-22T03:30:11.094Z,100435.75
2023-12-22T03:32:38.617Z,100458.44
2023-12-22T03:35:06.299Z,100442.69
2023-12-22T03:37:33.362Z,100449.59
2023-12-22T03:40:00.513Z,100444.41
2023-12-22T03:42:27.605Z,100447.75
2023-12-22T03:44:54.586Z,100445.19
2023-12-22T03:47:21.598Z,100459.94
2023-12-22T03:49:48.549Z,100446.91
2023-12-22T03:52:15.817Z,100450.53
2023-12-22T03:54:42.848Z,100453.00
2023-12-22T03:57:09.903Z,100454.81
2023-12-22T03:59:37.007Z,100450.41
2023-12-22T04:02:04.275Z,100467.97
2023-12-22T04:04:31.416Z,100453.16
2023-12-22T04:06:58.421Z,100462.72
2023-12-22T04:09:25.553Z,100466.31
2023-12-22T04:11:53.110Z,100450.69
2023-12-22T04:14:20.361Z,100457.63
2023-12-22T04:16:47.443Z,100466.41
2023-12-22T04:19:14.600Z,100457.63
2023-12-22T04:21:41.718Z,100464.63
2023-12-22T04:24:08.796Z,100460.25
2023-12-22T04:26:35.761Z,100460.28
2023-12-22T04:29:03.075Z,100468.91
2023-12-22T04:31:30.050Z,100462.81
2023-12-22T04:33:57.229Z,100470.63
2023-12-22T04:36:24.345Z,100467.13
2023-12-22T04:38:51.467Z,100492.50
2023-12-22T04:41:18.595Z,100502.06
2023-12-22T04:43:45.665Z,100490.00
2023-12-22T04:46:12.799Z,100473.25
2023-12-22T04:48:40.216Z,100482.94
2023-12-22T04:51:07.226Z,100475.03
2023-12-22T04:53:34.365Z,100482.94
2023-12-22T04:56:02.896Z,100484.72
2023-12-22T04:58:29.951Z,100489.25
2023-12-22T05:00:56.996Z,100487.50
2023-12-22T05:03:23.998Z,100484.13
2023-12-22T05:05:51.182Z,100480.50
2023-12-22T05:08:18.400Z,100489.34
2023-12-22T05:10:45.567Z,100504.91
2023-12-22T05:13:12.653Z,100501.53
2023-12-22T05:15:39.588Z,100492.84
2023-12-22T05:18:06.898Z,100508.69
2023-12-22T05:20:33.957Z,100501.69
2023-12-22T05:23:01.383Z,100505.97
2023-12-22T05:25:28.599Z,100500.81
2023-12-22T05:27:55.651Z,100498.13
2023-12-22T05:30:22.914Z,100488.56
2023-12-22T05:32:50.306Z,100487.63
2023-12-22T05:35:17.434Z,100499.88
2023-12-22T05:37:44.827Z,100486.72
2023-12-22T05:40:13.261Z,100496.53
2023-12-22T05:42:40.626Z,100480.72
2023-12-22T05:45:12.153Z,100484.25
2023-12-22T05:47:39.373Z,100483.47
2023-12-22T05:50:07.328Z,100492.09
2023-12-22T05:52:34.758Z,100481.59
2023-12-22T05:55:01.841Z,100474.53
2023-12-22T05:57:28.808Z,100463.28
2023-12-22T05:59:55.747Z,100466.81
2023-12-22T06:02:22.718Z,100473.72
2023-12-22T06:04:50.028Z,100469.47
2023-12-22T06:07:17.100Z,100465.09
2023-12-22T06:09:45.186Z,100471.19
2023-12-22T06:12:13.750Z,100471.13
2023-12-22T06:14:41.055Z,100459.84
2023-12-22T06:17:08.039Z,100456.28
2023-12-22T06:19:37.403Z,100471.16
2023-12-22T06:22:05.265Z,100470.38
2023-12-22T06:24:32.322Z,100462.53
2023-12-22T06:27:02.212Z,100462.50
2023-12-22T06:29:32.788Z,100471.28
2023-12-22T06:31:59.971Z,100459.94
2023-12-22T06:34:29.718Z,100459.97
2023-12-22T06:36:56.860Z,100461.72
2023-12-22T06:39:25.981Z,100462.56
2023-12-22T06:41:52.981Z,100477.53
2023-12-22T06:44:20.103Z,100470.41
2023-12-22T06:46:47.300Z,100487.75
2023-12-22T06:49:14.529Z,100497.28
2023-12-22T06:51:41.618Z,100482.59
2023-12-22T06:54:10.221Z,100469.91
2023-12-22T06:56:39.277Z,100470.69
2023-12-22T06:59:09.208Z,100482.34
2023-12-22T07:01:38.581Z,100467.50
2023-12-22T07:04:05.995Z,100467.34
2023-12-22T07:06:35.730Z,100460.34
2023-12-22T07:09:20.448Z,100463.16
2023-12-22T07:11:57.820Z,100459.63
2023-12-22T07:14:27.924Z,100454.53
2023-12-22T07:16:55.174Z,100459.47
2023-12-22T07:19:22.379Z,100458.72
2023-12-22T07:21:50.716Z,100458.56
2023-12-22T07:24:17.715Z,100453.75
2023-12-22T07:26:47.598Z,100460.06
2023-12-22T07:29:15.533Z,100467.38
2023-12-22T07:31:42.709Z,100461.41
2023-12-22T07:34:10.312Z,100462.19
2023-12-22T07:36:43.662Z,100457.81
2023-12-22T07:39:17.119Z,100458.88
2023-12-22T07:41:45.142Z,100443.06
2023-12-22T07:44:12.399Z,100457.94
2023-12-22T07:46:43.741Z,100461.56
2023-12-22T07:49:14.819Z,100458.88
2023-12-22T07:51:46.204Z,100460.56
2023-12-22T07:54:13.185Z,100451.00
2023-12-22T07:56:40.227Z,100458.06
2023-12-22T07:59:18.388Z,100457.25
2023-12-22T08:01:53.852Z,100443.34
2023-12-22T08:04:20.969Z,100454.66
2023-12-22T08:06:48.108Z,100450.38
2023-12-22T08:09:15.102Z,100450.44
2023-12-22T08:11:43.236Z,100449.50
2023-12-22T08:14:10.195Z,100448.63
2023-12-22T08:16:37.238Z,100440.66
2023-12-22T08:19:04.293Z,100441.56
2023-12-22T08:21:39.331Z,100445.16
2023-12-22T08:24:16.626Z,100440.75
2023-12-22T08:26:49.116Z,100446.03
2023-12-22T08:29:17.048Z,100456.59
2023-12-22T08:31:45.200Z,100449.56
2023-12-22T08:34:12.508Z,100439.97
2023-12-22T08:36:39.848Z,100447.06
2023-12-22T08:39:07.472Z,100463.47
2023-12-22T08:41:37.622Z,100472.09
2023-12-22T08:44:07.706Z,100480.81
2023-12-22T08:46:36.008Z,100474.72
2023-12-22T08:49:04.454Z,100486.13
2023-12-22T08:51:31.907Z,100485.19
2023-12-22T08:53:59.916Z,100486.97
2023-12-22T08:56:27.615Z,100500.16
2023-12-22T08:58:56.520Z,100497.56
2023-12-22T09:01:24.163Z,100501.97
2023-12-22T09:03:51.378Z,100504.63
2023-12-22T09:06:20.525Z,100500.31
2023-12-22T09:08:48.041Z,100499.50
2023-12-22T09:11:19.253Z,100496.88
2023-12-22T09:13:46.759Z,100505.66
2023-12-22T09:16:16.645Z,100511.81
2023-12-22T09:18:45.978Z,100518.06
2023-12-22T09:21:13.179Z,100514.63
2023-12-22T09:23:40.351Z,100504.94
2023-12-22T09:26:07.422Z,100529.47
2023-12-22T09:28:34.518Z,100529.56
2023-12-22T09:31:01.635Z,100525.19
2023-12-22T09:33:28.825Z,100530.47
2023-12-22T09:35:56.548Z,100528.81
2023-12-22T09:38:25.082Z,100528.06
2023-12-22T09:40:52.779Z,100514.91
2023-12-22T09:43:21.388Z,100520.22
2023-12-22T09:45:50.870Z,100509.66
2023-12-22T09:48:28.466Z,100526.31
2023-12-22T09:50:56.682Z,100504.41
2023-12-22T09:53:26.543Z,100512.28
2023-12-22T09:55:55.525Z,100526.34
2023-12-22T09:58:25.244Z,100526.34
2023-12-22T10:00:53.391Z,100524.56
2023-12-22T10:03:21.478Z,100528.09
2023-12-22T10:05:48.651Z,100529.03
2023-12-22T10:08:16.882Z,100515.94
2023-12-22T10:10:44.512Z,100532.63
2023-12-22T10:13:12.169Z,100529.19
2023-12-22T10:15:44.681Z,100520.47
2023-12-22T10:18:12.068Z,100520.56
2023-12-22T10:20:39.463Z,100525.81
2023-12-22T10:23:07.308Z,100519.72
2023-12-22T10:25:34.520Z,100510.94
2023-12-22T10:28:02.849Z,100505.78
2023-12-22T10:30:30.088Z,100525.03
2023-12-22T10:32:57.288Z,100520.75
2023-12-22T10:35:25.084Z,100515.44
2023-12-22T10:37:55.469Z,100520.75
2023-12-22T10:40:23.773Z,100520.81
2023-12-22T10:42:51.852Z,100513.81
2023-12-22T10:45:21.843Z,100524.38
2023-12-22T10:47:52.922Z,100516.50
2023-12-22T10:50:25.706Z,100512.22
2023-12-22T10:52:53.150Z,100513.94
2023-12-22T10:55:20.795Z,100509.63
2023-12-22T10:57:48.749Z,100513.13
2023-12-22T11:00:17.816Z,100508.78
2023-12-22T11:02:49.455Z,100500.94
2023-12-22T11:05:18.946Z,100493.94
2023-12-22T11:07:51.232Z,100498.34
2023-12-22T11:10:22.797Z,100493.13
2023-12-22T11:12:51.288Z,100498.38
2023-12-22T11:15:20.492Z,100497.50
2023-12-22T11:17:50.120Z,100500.22
2023-12-22T11:20:17.617Z,100486.19
2023-12-22T11:22:45.803Z,100479.19
2023-12-22T11:25:16.160Z,100494.94
2023-12-22T11:27:46.102Z,100483.56
2023-12-22T11:30:15.088Z,100485.34
2023-12-22T11:32:45.389Z,100487.09
2023-12-22T11:35:12.649Z,100478.38
2023-12-22T11:37:40.405Z,100492.38
2023-12-22T11:40:08.555Z,100475.78
2023-12-22T11:42:46.698Z,100469.66
2023-12-22T11:45:17.468Z,100487.19
2023-12-22T11:47:45.266Z,100480.19
2023-12-22T11:50:13.098Z,100486.31
2023-12-22T11:52:40.805Z,100481.94
2023-12-22T11:55:08.750Z,100492.50
2023-12-22T11:57:40.228Z,100488.97
2023-12-22T12:00:27.221Z,100474.97
2023-12-22T12:02:57.245Z,100476.75
2023-12-22T12:05:24.666Z,100474.97
2023-12-22T12:07:52.435Z,100482.88
2023-12-22T12:10:38.306Z,100473.25
2023-12-22T12:13:12.912Z,100461.88
2023-12-22T12:15:40.472Z,100470.66
2023-12-22T12:18:07.691Z,100464.50
2023-12-22T12:20:35.358Z,100455.75
2023-12-22T12:23:06.802Z,100457.50
2023-12-22T12:25:36.895Z,100458.41
2023-12-22T12:28:06.155Z,100449.59
2023-12-22T12:30:35.865Z,100462.72
2023-12-22T12:33:11.094Z,100456.59
2023-12-22T12:35:47.721Z,100447.84
2023-12-22T12:38:21.237Z,100455.75
2023-12-22T12:40:52.530Z,100432.94
2023-12-22T12:43:20.488Z,100437.34
2023-12-22T12:48:19.510Z,100460.97
2023-12-22T12:50:47.243Z,100453.19
2023-12-22T12:53:14.393Z,100466.31
2023-12-22T12:55:41.926Z,100453.13
2023-12-22T12:58:09.184Z,100451.38
2023-12-22T13:00:37.059Z,100457.56
2023-12-22T13:03:07.474Z,100450.53
2023-12-22T13:05:37.739Z,100439.16
2023-12-22T13:08:11.780Z,100450.56
2023-12-22T13:10:39.937Z,100450.56
2023-12-22T13:13:07.656Z,100429.53
2023-12-22T13:15:35.581Z,100423.47
2023-12-22T13:18:02.945Z,100433.97
2023-12-22T13:20:30.407Z,100423.47
2023-12-22T13:22:57.718Z,100425.16
2023-12-22T13:25:25.430Z,100421.66
2023-12-22T13:27:54.060Z,100425.19
2023-12-22T13:30:53.442Z,100438.28
2023-12-22T13:33:20.688Z,100441.84
2023-12-22T13:35:49.066Z,100443.50
2023-12-22T13:38:16.331Z,100435.72
2023-12-22T13:40:49.772Z,100439.22
2023-12-22T13:43:17.012Z,100454.06
2023-12-22T13:45:44.355Z,100448.81
2023-12-22T13:48:11.524Z,100461.13
2023-12-22T13:50:41.620Z,100458.44
2023-12-22T13:53:12.020Z,100469.88
2023-12-22T13:55:40.318Z,100462.03
2023-12-22T13:58:07.885Z,100472.56
2023-12-22T14:00:35.365Z,100492.69
2023-12-22T14:03:03.272Z,100477.81
2023-12-22T14:05:34.190Z,100488.34
2023-12-22T14:08:04.806Z,100476.97
2023-12-22T14:10:32.516Z,100473.44
2023-12-22T14:12:59.637Z,100481.34
2023-12-22T14:15:37.257Z,100469.06
2023-12-22T14:18:09.716Z,100489.19
2023-12-22T14:20:36.933Z,100482.22
2023-12-22T14:23:05.052Z,100491.00
2023-12-22T14:25:33.221Z,100479.59
2023-12-22T14:28:00.607Z,100469.94
2023-12-22T14:30:27.826Z,100475.25
2023-12-22T14:32:55.588Z,100505.94
2023-12-22T14:35:22.660Z,100503.25
2023-12-22T14:37:50.284Z,100505.94
2023-12-22T14:40:17.581Z,100517.31
2023-12-22T14:42:44.563Z,100504.16
2023-12-22T14:45:11.644Z,100527.81
2023-12-22T14:47:38.775Z,100520.81
2023-12-22T14:50:07.018Z,100518.19
2023-12-22T14:52:34.404Z,100532.22
2023-12-22T14:55:02.252Z,100519.06
2023-12-22T14:57:32.377Z,100529.56
2023-12-22T14:59:59.390Z,100517.31
2023-12-22T15:02:26.599Z,100517.34
2023-12-22T15:04:54.463Z,100526.97
2023-12-22T15:07:22.284Z,100533.09
2023-12-22T15:09:50.455Z,100542.72
2023-12-22T15:12:18.028Z,100539.22
2023-12-22T15:14:46.563Z,100561.97
2023-12-22T15:17:14.177Z,100562.00
2023-12-22T15:19:46.919Z,100551.53
2023-12-22T15:22:14.454Z,100547.09
2023-12-22T15:24:44.740Z,100563.72
2023-12-22T15:27:12.506Z,100553.25
2023-12-22T15:29:39.984Z,100566.34
2023-12-22T15:32:07.334Z,100558.47
2023-12-22T15:34:34.392Z,100571.56
2023-12-22T15:37:01.443Z,100576.88
2023-12-22T15:39:28.379Z,100568.09
2023-12-22T15:41:55.368Z,100561.97
2023-12-22T15:44:22.473Z,100575.97
2023-12-22T15:46:49.489Z,100576.81
2023-12-22T15:49:16.686Z,100580.25
2023-12-22T15:51:43.816Z,100586.25
2023-12-22T15:54:10.803Z,100587.13
2023-12-22T15:56:37.958Z,100594.13
2023-12-22T15:59:05.166Z,100602.88
2023-12-22T16:01:32.225Z,100590.63
2023-12-22T16:03:59.455Z,100623.84
2023-12-22T16:06:26.759Z,100611.59
2023-12-22T16:08:53.997Z,100604.66
2023-12-22T16:11:21.981Z,100630.06
2023-12-22T16:13:49.098Z,100626.66
2023-12-22T16:16:20.402Z,100611.72
2023-12-22T16:18:48.211Z,100623.97
2023-12-22T16:21:15.629Z,100626.66
2023-12-22T16:23:42.748Z,100610.03
2023-12-22T16:26:09.817Z,100626.59
2023-12-22T16:28:37.457Z,100628.44
2023-12-22T16:31:04.887Z,100622.19
2023-12-22T16:33:32.225Z,100626.53
2023-12-22T16:35:59.282Z,100616.94
2023-12-22T16:38:26.519Z,100606.53
2023-12-22T16:40:53.718Z,100617.84
2023-12-22T16:43:20.820Z,100610.81
2023-12-22T16:45:50.352Z,100617.81
2023-12-22T16:48:19.022Z,100620.47
2023-12-22T16:50:46.184Z,100615.22
2023-12-22T16:53:13.377Z,100617.84
2023-12-22T16:55:40.437Z,100616.91
2023-12-22T16:58:07.441Z,100615.16
2023-12-22T17:00:34.525Z,100624.84
2023-12-22T17:03:01.867Z,100614.25
2023-12-22T17:05:29.169Z,100611.72
2023-12-22T17:07:56.740Z,100616.94
2023-12-22T17:10:23.845Z,100624.84
2023-12-22T17:12:51.046Z,100619.50
2023-12-22T17:15:18.276Z,100634.44
2023-12-22T17:17:45.582Z,100635.31
2023-12-22T17:20:12.958Z,100650.19
2023-12-22T17:22:40.127Z,100639.81
2023-12-22T17:25:07.618Z,100639.75
2023-12-22T17:27:34.707Z,100642.31
2023-12-22T17:30:01.649Z,100638.81
2023-12-22T17:32:28.677Z,100647.59
2023-12-22T17:34:55.853Z,100645.94
2023-12-22T17:37:23.087Z,100645.94
2023-12-22T17:39:51.151Z,100658.13
2023-12-22T17:42:18.167Z,100649.38
2023-12-22T17:44:45.262Z,100654.69
2023-12-22T17:47:12.414Z,100672.13
2023-12-22T17:49:39.634Z,100658.25
2023-12-22T17:52:07.249Z,100671.44
2023-12-22T17:54:34.252Z,100670.50
2023-12-22T17:57:05.601Z,100674.03
2023-12-22T17:59:32.866Z,100685.41
2023-12-22T18:01:59.952Z,100674.91
2023-12-22T18:04:26.913Z,100674.16
2023-12-22T18:06:54.462Z,100694.28
2023-12-22T18:09:22.125Z,100688.13
2023-12-22T18:11:49.365Z,100696.13
2023-12-22T18:14:16.438Z,100691.63
2023-12-22T18:16:44.774Z,100717.91
2023-12-22T18:19:12.758Z,100717.88
2023-12-22T18:21:39.931Z,100716.94
2023-12-22T18:24:07.403Z,100709.91
2023-12-22T18:26:34.535Z,100719.50
2023-12-22T18:29:02.194Z,100705.59
2023-12-22T18:31:29.647Z,100722.19
2023-12-22T18:33:57.564Z,100717.75
2023-12-22T18:36:24.778Z,100727.41
2023-12-22T18:38:51.814Z,100729.16
2023-12-22T18:41:18.946Z,100741.44
2023-12-22T18:43:46.014Z,100731.84
2023-12-22T18:46:13.064Z,100728.19
2023-12-22T18:48:44.924Z,100745.78
2023-12-22T18:51:15.625Z,100728.19
2023-12-22T18:53:42.974Z,100758.88
2023-12-22T18:56:11.237Z,100764.09
2023-12-22T18:58:40.443Z,100771.03
2023-12-22T19:01:14.883Z,100756.31
2023-12-22T19:03:48.505Z,100744.81
2023-12-22T19:06:16.951Z,100751.78
2023-12-22T19:08:44.092Z,100776.25
2023-12-22T19:11:13.953Z,100752.66
2023-12-22T19:13:42.533Z,100803.44
2023-12-22T19:16:09.882Z,100788.47
2023-12-22T19:18:36.937Z,100799.09
2023-12-22T19:21:04.212Z,100799.88
2023-12-22T19:23:31.269Z,100773.72
2023-12-22T19:25:58.249Z,100806.97
2023-12-22T19:28:25.226Z,100789.47
2023-12-22T19:30:53.077Z,100795.59
2023-12-22T19:33:23.395Z,100829.72
2023-12-22T19:35:50.577Z,100814.75
2023-12-22T19:38:21.333Z,100814.75
2023-12-22T19:40:50.005Z,100805.97
2023-12-22T19:43:17.753Z,100819.13
2023-12-22T19:45:45.201Z,100813.09
2023-12-22T19:48:12.282Z,100802.47
2023-12-22T19:50:39.657Z,100821.78
2023-12-22T19:53:06.749Z,100827.00
2023-12-22T19:55:33.911Z,100819.00
2023-12-22T19:58:01.000Z,100832.25
2023-12-22T20:00:27.943Z,100827.88
2023-12-22T20:02:55.883Z,100836.50
2023-12-22T20:05:23.104Z,100845.25
2023-12-22T20:07:50.572Z,100840.88
2023-12-22T20:10:17.777Z,100841.69
2023-12-22T20:12:44.912Z,100840.88
2023-12-22T20:15:12.519Z,100867.94
2023-12-22T20:17:42.122Z,100840.66
2023-12-22T20:20:10.495Z,100855.47
2023-12-22T20:22:37.812Z,100874.81
2023-12-22T20:25:05.781Z,100879.31
2023-12-22T20:27:32.794Z,100871.25
2023-12-22T20:29:59.759Z,100877.53
2023-12-22T20:32:27.621Z,100890.56
2023-12-22T20:34:54.649Z,100888.81
2023-12-22T20:37:21.715Z,100878.50
2023-12-22T20:39:48.899Z,100872.28
2023-12-22T20:42:15.867Z,100893.38
2023-12-22T20:44:42.993Z,100881.91
2023-12-22T20:47:09.966Z,100891.53
2023-12-22T20:49:39.817Z,100900.22
2023-12-22T20:52:08.063Z,100896.66
2023-12-22T20:54:35.119Z,100900.19
2023-12-22T20:57:04.578Z,100911.47
2023-12-22T20:59:31.671Z,100903.47
2023-12-22T21:01:58.941Z,100908.66
2023-12-22T21:04:26.108Z,100895.59
2023-12-22T21:06:53.041Z,100907.78
2023-12-22T21:09:20.843Z,100928.88
2023-12-22T21:11:47.869Z,100913.97
2023-12-22T21:14:14.965Z,100916.47
2023-12-22T21:16:46.150Z,100916.47
2023-12-22T21:19:13.602Z,100910.25
2023-12-22T21:21:45.267Z,100921.78
2023-12-22T21:24:13.465Z,100926.97
2023-12-22T21:26:41.275Z,100942.75
2023-12-22T21:29:08.380Z,100936.63
2023-12-22T21:31:35.414Z,100939.25
2023-12-22T21:34:02.644Z,100939.41
2023-12-22T21:36:30.819Z,100941.94
2023-12-22T21:38:57.818Z,100946.31
2023-12-22T21:41:24.839Z,100954.16
2023-12-22T21:43:52.427Z,100953.19
2023-12-22T21:46:19.778Z,100948.84
2023-12-22T21:48:47.012Z,100952.31
2023-12-22T21:51:14.241Z,100953.22
2023-12-22T21:53:41.316Z,100951.41
2023-12-22T21:56:08.418Z,100954.06
2023-12-22T21:58:35.477Z,100966.31
2023-12-22T22:01:04.862Z,100959.34
2023-12-22T22:03:31.922Z,100971.59
2023-12-22T22:05:58.986Z,100950.72
2023-12-22T22:08:26.084Z,100983.03
2023-12-22T22:10:53.232Z,100999.63
2023-12-22T22:13:20.281Z,100991.03
2023-12-22T22:15:47.708Z,100983.94
2023-12-22T22:18:14.846Z,100978.69
2023-12-22T22:20:42.345Z,100984.78
2023-12-22T22:23:09.465Z,100989.13
2023-12-22T22:25:38.516Z,100994.47
2023-12-22T22:28:06.427Z,100990.06
2023-12-22T22:30:33.459Z,100989.16
2023-12-22T22:33:00.764Z,100984.75
2023-12-22T22:35:27.961Z,101000.56
2023-12-22T22:37:56.684Z,100995.34
2023-12-22T22:40:23.978Z,100995.38
2023-12-22T22:42:50.919Z,101004.03
2023-12-22T22:45:18.123Z,100997.00
2023-12-22T22:47:45.262Z,101005.78
2023-12-22T22:50:12.576Z,101017.19
2023-12-22T22:52:39.717Z,101007.66
2023-12-22T22:55:07.314Z,101014.56
2023-12-22T22:57:34.724Z,101025.06
2023-12-22T23:00:01.676Z,101018.03
2023-12-22T23:02:30.544Z,101025.94
2023-12-22T23:04:57.514Z,101025.00
2023-12-22T23:07:24.498Z,101032.06
2023-12-22T23:09:51.449Z,101025.88
2023-12-22T23:12:18.504Z,101038.13
2023-12-22T23:14:45.488Z,101035.50
2023-12-22T23:17:12.565Z,101038.91
2023-12-22T23:19:39.668Z,101041.53
2023-12-22T23:22:06.631Z,101044.19
2023-12-22T23:24:33.609Z,101037.19
2023-12-22T23:27:00.716Z,101059.97
2023-12-22T23:29:28.270Z,101039.78
2023-12-22T23:31:55.276Z,101039.00
2023-12-22T23:34:22.304Z,101054.72
2023-12-22T23:36:51.977Z,101066.09
2023-12-22T23:39:18.973Z,101056.53
2023-12-22T23:41:46.058Z,101057.34
2023-12-22T23:44:13.150Z,101054.66
2023-12-22T23:46:40.346Z,101053.88
2023-12-22T23:49:07.353Z,101052.06
2023-12-22T23:51:34.431Z,101057.31
2023-12-22T23:54:01.479Z,101044.94
2023-12-22T23:56:28.533Z,101060.75
2023-12-22T23:58:55.611Z,101053.81
